Manorville, PA

10:46 AM EDT on July 24, 2016 (GMT -0400)
At Grace Baptist Church | | Change Station

Elev 1084 ft 40.82 °N, 79.54 °W | Updated 10 seconds ago

Partly Cloudy
Partly Cloudy
81.8 °F
Feels Like 85 °F
N
0.0
Wind Variable Wind from WSW
Gusts 3.0 mph

Today
High -- | Low -- °F
--% Chance of Precip.
Yesterday
High -- | Low -- °F
Precip. -- in
Pressure 30.08 in
Visibility 10.0 miles
Clouds Few 6000 ft
Heat Index 85 °F
Dew Point 68 °F
Humidity 64%
Rainfall 0.00 in
Snow Depth Not available.
6:07 AM 8:41 PM
Waning Gibbous, 76% visible
METAR KBTP 241435Z AUTO 17005KT 10SM FEW060 27/18 A3008 RMK AO1
Pressure 30.08 in
Visibility 10.0 miles
Clouds Few 6000 ft
Heat Index 85 °F
Dew Point 68 °F
Humidity 64%
Rainfall 0.00 in
Snow Depth Not available.
6:07 AM 8:41 PM
Waning Gibbous, 76% visible
METAR KBTP 241435Z AUTO 17005KT 10SM FEW060 27/18 A3008 RMK AO1

10-Day Weather Forecast

Almanac

Astronomy

Jul. 24, 2016 Rise Set
Actual Time
Civil Twilight
Nautical Twilight
Astronomical Twilight
Moon
Length of Visible Light
Length of Day
Tomorrow will be .
, % of the Moon is Illuminated

Today's Extremes

State Highs State Lows

Community

WunderPhotos

Upload Photos

1,927,071 photos uploaded!

WunderBlog® & News

Nearby

Air Quality

  Air Quality AQ Index Pollutant
Not available.

Snow Depth

Station Depth Elevation

Earthquake Activity

City Distance Mag. Time & Date
Minimum magnitude displayed is 2.5.

Coastal Water Temperatures

Place Temperature

Stations

Nearby Weather Stations

Station Location Temp. Windchill Dew Point Humidity Wind Precip. Elev Updated Type
                   

Watches & Warnings

There are currently no watches in effect.